Time;durP1;ratioP1;P1;durP2;ratioP2;P2;SDS_P1;SDS_P2;PMS_P1;PMS_P2;Temp;Humidity;BMP_temperature;BMP_pressure;BME280_temperature;BME280_humidity;BME280_pressure;Samples;Min_cycle;Max_cycle;Signal;HPM_P1;HPM_P2
2022/09/29 00:00:11;;;;;;;3.63;1.17;;;9.50;84.60;;;7.69;100.00;94600.31;4944668;28;20054;-71
2022/09/29 00:02:37;;;;;;;1.20;0.90;;;9.40;84.60;;;7.69;100.00;94608.19;4947937;28;20059;-71
2022/09/29 00:05:04;;;;;;;1.15;0.93;;;9.40;84.50;;;7.70;100.00;94609.81;4958667;28;20199;-71
2022/09/29 00:07:31;;;;;;;3.65;0.98;;;9.50;84.70;;;7.71;100.00;94608.81;4942043;28;20054;-70
2022/09/29 00:09:57;;;;;;;2.25;1.00;;;9.50;84.60;;;7.71;100.00;94608.81;4962458;28;20039;-71
2022/09/29 00:12:22;;;;;;;1.50;0.80;;;9.50;84.60;;;7.73;100.00;94612.00;4967384;28;20045;-71
2022/09/29 00:14:48;;;;;;;1.27;0.88;;;9.60;84.50;;;7.72;100.00;94605.16;4956997;28;20043;-71
2022/09/29 00:17:14;;;;;;;2.75;1.05;;;9.50;84.60;;;7.71;100.00;94606.19;4962300;28;20071;-71
2022/09/29 00:19:40;;;;;;;1.75;1.10;;;9.50;84.40;;;7.71;100.00;94600.94;4960995;28;20031;-71
2022/09/29 00:22:06;;;;;;;1.90;1.08;;;9.50;84.40;;;7.71;100.00;94598.34;4952986;28;20132;-71
2022/09/29 00:24:32;;;;;;;2.05;0.93;;;9.50;84.30;;;7.69;100.00;94597.72;4966398;28;20545;-70
2022/09/29 00:26:58;;;;;;;4.10;1.20;;;9.50;84.30;;;7.71;100.00;94608.00;4980502;28;20043;-70
2022/09/29 00:29:24;;;;;;;2.03;1.42;;;9.50;84.20;;;7.71;100.00;94598.34;4959548;28;20085;-70
2022/09/29 00:31:49;;;;;;;3.65;1.17;;;9.50;84.20;;;7.71;100.00;94602.75;4963082;28;20031;-70
2022/09/29 00:34:15;;;;;;;2.15;1.08;;;9.60;84.20;;;7.71;100.00;94598.34;4959906;28;20073;-70
2022/09/29 00:36:41;;;;;;;3.15;1.20;;;9.50;84.20;;;7.72;100.00;94596.50;4956035;28;20049;-71
2022/09/29 00:39:07;;;;;;;2.10;1.45;;;9.50;84.30;;;7.72;100.00;94594.69;4967443;28;20066;-71
2022/09/29 00:41:35;;;;;;;2.30;1.50;;;9.60;84.20;;;7.70;100.00;94601.97;5029607;28;20172;-70
2022/09/29 00:44:06;;;;;;;3.45;1.80;;;9.60;84.10;;;7.73;100.00;94600.75;4914958;28;20078;-70
2022/09/29 00:46:44;;;;;;;5.47;1.60;;;9.60;84.20;;;7.72;100.00;94599.13;4965253;28;20043;-70
2022/09/29 00:49:27;;;;;;;2.13;1.63;;;9.50;84.30;;;7.72;100.00;94599.94;4963444;28;20065;-71
2022/09/29 00:51:59;;;;;;;2.25;1.48;;;9.50;84.30;;;7.73;100.00;94591.06;4961631;28;20036;-71
2022/09/29 00:54:29;;;;;;;2.55;1.30;;;9.50;84.40;;;7.72;100.00;94586.84;4982604;28;20039;-70
2022/09/29 00:56:55;;;;;;;2.40;1.60;;;9.50;84.30;;;7.70;100.00;94580.22;4932055;28;20038;-70
2022/09/29 00:59:27;;;;;;;2.03;1.48;;;9.50;84.10;;;7.69;100.00;94574.16;4949009;28;20038;-70
2022/09/29 01:01:53;;;;;;;3.38;1.75;;;9.50;84.30;;;7.69;100.00;94571.53;4932552;28;20489;-70
2022/09/29 01:04:21;;;;;;;3.78;1.40;;;9.50;84.30;;;7.66;100.00;94574.56;4978198;28;20498;-71
2022/09/29 01:06:53;;;;;;;2.28;1.50;;;9.50;84.50;;;7.66;100.00;94564.91;4958347;28;20035;-71
2022/09/29 01:09:22;;;;;;;2.60;1.60;;;9.50;84.60;;;7.67;100.00;94568.34;4926766;28;20039;-70
2022/09/29 01:11:51;;;;;;;2.97;1.50;;;9.50;84.50;;;7.65;100.00;94568.53;4956326;28;20061;-73
2022/09/29 01:14:16;;;;;;;1.80;1.33;;;9.50;84.50;;;7.67;100.00;94570.94;4934860;28;20387;-70
2022/09/29 01:16:42;;;;;;;4.90;1.67;;;9.40;84.40;;;7.67;100.00;94566.50;4954048;28;20071;-70
2022/09/29 01:19:19;;;;;;;3.15;1.60;;;9.50;84.40;;;7.67;100.00;94568.34;4944213;28;20118;-71
2022/09/29 01:22:10;;;;;;;3.63;1.60;;;9.50;84.40;;;7.66;100.00;94574.56;4947134;28;20061;-70
2022/09/29 01:25:18;;;;;;;6.07;1.73;;;9.40;84.30;;;7.64;100.00;94573.97;4978468;28;20399;-70
2022/09/29 01:28:07;;;;;;;2.55;1.60;;;9.40;84.40;;;7.62;100.00;94576.00;4956516;28;20486;-70
2022/09/29 01:31:21;;;;;;;2.75;1.63;;;9.40;84.40;;;7.61;100.00;94571.78;4959643;28;20035;-70
2022/09/29 01:34:18;;;;;;;6.35;1.70;;;9.40;84.40;;;7.58;100.00;94577.44;4961931;28;20036;-70
2022/09/29 01:37:16;;;;;;;2.78;1.70;;;9.40;84.50;;;7.58;100.00;94569.59;4949898;28;20046;-71
2022/09/29 01:39:58;;;;;;;3.25;1.70;;;9.40;84.60;;;7.57;100.00;94571.41;4991678;28;20031;-71
2022/09/29 01:42:29;;;;;;;3.00;1.70;;;9.40;84.70;;;7.59;100.00;94573.81;4963202;28;20144;-70
2022/09/29 01:45:01;;;;;;;2.42;1.60;;;9.40;84.90;;;7.59;100.00;94577.22;4955778;28;20030;-71
2022/09/29 01:47:30;;;;;;;3.13;1.73;;;9.40;84.80;;;7.59;100.00;94571.19;4948423;28;20118;-70
2022/09/29 01:50:06;;;;;;;4.47;1.90;;;9.40;84.70;;;7.60;100.00;94572.78;4961723;28;20046;-70
2022/09/29 01:52:33;;;;;;;2.03;1.67;;;9.40;84.80;;;7.63;100.00;94569.75;4936080;28;20039;-70
2022/09/29 01:55:12;;;;;;;6.20;2.05;;;9.50;84.80;;;7.62;100.00;94562.91;4960607;28;20395;-70
2022/09/29 01:57:46;;;;;;;6.40;2.10;;;9.50;84.80;;;7.64;100.00;94560.91;4962560;28;20031;-70
2022/09/29 02:00:14;;;;;;;2.42;1.70;;;9.50;84.70;;;7.64;100.00;94572.16;4955325;28;20073;-71
2022/09/29 02:02:53;;;;;;;2.75;1.73;;;9.50;84.80;;;7.65;100.00;94565.13;4927763;28;20478;-70
2022/09/29 02:05:38;;;;;;;2.80;1.85;;;9.50;84.80;;;7.67;100.00;94565.72;4969997;28;20451;-69
2022/09/29 02:08:13;;;;;;;2.60;1.67;;;9.50;84.70;;;7.68;100.00;94572.56;4971824;28;20037;-70
2022/09/29 02:10:51;;;;;;;2.90;1.92;;;9.50;84.60;;;7.66;100.00;94561.50;4966325;28;20509;-70
2022/09/29 02:13:17;;;;;;;4.07;1.95;;;9.50;84.60;;;7.66;100.00;94570.16;4948407;28;20038;-70
2022/09/29 02:15:45;;;;;;;3.42;1.70;;;9.50;84.70;;;7.67;100.00;94573.56;4945459;28;20059;-71
2022/09/29 02:18:17;;;;;;;3.10;1.70;;;9.50;84.70;;;7.66;100.00;94553.66;4980109;28;20110;-70
2022/09/29 02:20:42;;;;;;;2.70;1.83;;;9.50;84.70;;;7.63;100.00;94559.28;4923116;28;20060;-70
2022/09/29 02:23:08;;;;;;;4.15;1.98;;;9.50;84.70;;;7.66;100.00;94567.53;4963977;28;20375;-70
2022/09/29 02:25:34;;;;;;;3.20;2.28;;;9.60;84.80;;;7.67;100.00;94570.94;4944442;28;20498;-70
2022/09/29 02:28:00;;;;;;;4.00;2.35;;;9.50;84.50;;;7.67;100.00;94573.56;4928192;28;20038;-70
2022/09/29 02:30:26;;;;;;;4.28;2.28;;;9.50;84.60;;;7.66;100.00;94569.34;4995578;28;20544;-70
2022/09/29 02:32:52;;;;;;;3.88;2.40;;;9.50;84.70;;;7.66;100.00;94561.50;4967530;28;20035;-70
2022/09/29 02:35:17;;;;;;;2.58;2.00;;;9.50;84.80;;;7.65;100.00;94571.16;4959023;28;20185;-70
2022/09/29 02:38:05;;;;;;;3.05;2.33;;;9.50;84.90;;;7.66;100.00;94558.88;4983544;28;20142;-70
2022/09/29 02:40:58;;;;;;;3.40;2.22;;;9.50;84.90;;;7.65;100.00;94565.13;4965290;28;20478;-70
2022/09/29 02:44:13;;;;;;;3.13;2.17;;;9.50;84.80;;;7.68;100.00;94572.56;4964795;28;20042;-70
2022/09/29 02:46:44;;;;;;;6.80;2.33;;;9.50;84.80;;;7.67;100.00;94570.94;4966044;28;20027;-70
2022/09/29 02:49:56;;;;;;;3.33;2.30;;;9.50;84.80;;;7.68;100.00;94578.59;4970314;28;20127;-70
2022/09/29 02:52:37;;;;;;;2.55;1.98;;;9.50;84.80;;;7.70;100.00;94581.03;4961753;28;20031;-70
2022/09/29 02:55:18;;;;;;;3.25;2.60;;;9.50;84.80;;;7.68;100.00;94581.19;4975498;28;20202;-70
2022/09/29 02:58:12;;;;;;;3.40;2.50;;;9.50;84.80;;;7.68;100.00;94569.94;4979725;28;20036;-70
2022/09/29 03:00:38;;;;;;;3.65;2.40;;;9.50;84.60;;;7.67;100.00;94569.13;4969869;28;20031;-71
2022/09/29 03:03:04;;;;;;;3.47;2.42;;;9.50;84.70;;;7.67;100.00;94565.72;4944969;28;20399;-70
2022/09/29 03:05:30;;;;;;;5.28;2.40;;;9.50;84.80;;;7.69;100.00;94558.47;4965964;28;20058;-70
2022/09/29 03:07:55;;;;;;;3.97;2.10;;;9.50;84.60;;;7.69;100.00;94563.69;4967014;28;20112;-70
2022/09/29 03:10:21;;;;;;;5.93;2.88;;;9.60;84.60;;;7.68;100.00;94562.09;4957563;28;20529;-70
2022/09/29 03:12:47;;;;;;;5.13;3.17;;;9.60;84.50;;;7.67;100.00;94555.25;4929794;28;20058;-70
2022/09/29 03:15:13;;;;;;;21.73;16.48;;;9.50;84.50;;;7.68;100.00;94551.63;4973870;28;20078;-69
2022/09/29 03:17:39;;;;;;;7.60;6.75;;;9.50;84.50;;;7.68;100.00;94562.09;4930001;28;20066;-69
2022/09/29 03:20:06;;;;;;;11.80;7.60;;;9.50;84.60;;;7.67;100.00;94556.06;4953985;28;20031;-70
2022/09/29 03:22:31;;;;;;;5.47;3.38;;;9.50;84.50;;;7.66;100.00;94554.44;4974925;28;20080;-69
2022/09/29 03:24:57;;;;;;;3.88;2.42;;;9.50;84.30;;;7.67;100.00;94545.59;4957509;28;20069;-69
2022/09/29 03:27:23;;;;;;;3.80;2.22;;;9.50;84.40;;;7.66;100.00;94548.41;4962113;28;20117;-69
2022/09/29 03:29:49;;;;;;;4.07;2.40;;;9.50;84.50;;;7.67;100.00;94544.78;4970179;28;20039;-64
2022/09/29 03:32:15;;;;;;;6.03;2.20;;;9.50;84.40;;;7.65;100.00;94546.81;4968981;28;20030;-66
2022/09/29 03:34:41;;;;;;;3.15;1.90;;;9.50;84.20;;;7.65;100.00;94552.84;4955301;28;20042;-68
2022/09/29 03:37:07;;;;;;;2.92;2.00;;;9.50;84.20;;;7.66;100.00;94558.88;4962026;28;20130;-67
2022/09/29 03:39:32;;;;;;;6.10;1.92;;;9.50;84.50;;;7.67;100.00;94555.25;4947900;28;20031;-68
2022/09/29 03:41:58;;;;;;;7.55;3.97;;;9.50;84.50;;;7.68;100.00;94562.09;4972070;28;20055;-68
2022/09/29 03:44:24;;;;;;;19.27;12.73;;;9.50;84.50;;;7.69;100.00;94550.59;4947255;28;20088;-68
2022/09/29 03:46:50;;;;;;;18.23;13.73;;;9.60;84.40;;;7.68;100.00;94541.16;4963695;28;20063;-68
2022/09/29 03:49:15;;;;;;;6.50;4.93;;;9.60;84.40;;;7.68;100.00;94541.16;4977027;28;20449;-65
2022/09/29 03:51:41;;;;;;;12.07;9.15;;;9.50;84.30;;;7.67;100.00;94534.31;4985675;28;20120;-68
2022/09/29 03:54:07;;;;;;;4.13;2.63;;;9.50;84.40;;;7.67;100.00;94534.31;4948715;28;20451;-68
2022/09/29 03:56:33;;;;;;;4.45;2.42;;;9.50;84.30;;;7.70;100.00;94546.19;4933893;28;20070;-68
2022/09/29 03:58:59;;;;;;;2.58;1.98;;;9.50;84.40;;;7.70;100.00;94536.53;4966691;28;20080;-69
2022/09/29 04:01:25;;;;;;;3.85;1.85;;;9.50;84.20;;;7.70;100.00;94540.97;4967311;28;20490;-69
2022/09/29 04:03:50;;;;;;;2.88;2.00;;;9.50;84.10;;;7.69;100.00;94545.38;4964862;28;20035;-68
2022/09/29 04:06:16;;;;;;;2.45;1.83;;;9.50;84.20;;;7.70;100.00;94548.81;4990260;28;20114;-68
2022/09/29 04:08:42;;;;;;;3.53;2.17;;;9.50;84.10;;;7.71;100.00;94551.22;4976509;28;20051;-69
2022/09/29 04:11:08;;;;;;;3.33;1.60;;;9.60;84.00;;;7.71;100.00;94556.47;4949751;28;20035;-68
2022/09/29 04:13:34;;;;;;;3.10;1.75;;;9.60;84.00;;;7.72;100.00;94558.06;4964052;28;20636;-68
2022/09/29 04:16:04;;;;;;;2.60;1.80;;;9.60;83.90;;;7.72;100.00;94555.44;4987502;28;20403;-68
2022/09/29 04:18:30;;;;;;;3.03;2.15;;;9.60;83.70;;;7.71;100.00;94560.88;4980809;28;20110;-68
2022/09/29 04:20:59;;;;;;;2.80;1.70;;;9.50;83.60;;;7.71;100.00;94555.66;5009124;28;20247;-68
2022/09/29 04:23:26;;;;;;;3.97;1.92;;;9.60;83.70;;;7.71;100.00;94553.84;4982254;28;20486;-68
2022/09/29 04:25:52;;;;;;;3.30;1.83;;;9.50;83.70;;;7.71;100.00;94553.84;4970321;28;20034;-68
2022/09/29 04:28:18;;;;;;;4.10;1.80;;;9.50;84.00;;;7.72;100.00;94562.50;4990314;28;20550;-68
2022/09/29 04:30:43;;;;;;;3.28;1.92;;;9.50;84.00;;;7.72;100.00;94568.53;4979586;28;20041;-69
2022/09/29 04:33:09;;;;;;;3.17;2.00;;;9.60;84.10;;;7.74;100.00;94565.72;4987279;28;20062;-69
2022/09/29 04:35:35;;;;;;;3.03;2.10;;;9.60;83.90;;;7.73;100.00;94570.13;5032140;28;20074;-67
2022/09/29 04:38:01;;;;;;;5.45;2.92;;;9.60;84.00;;;7.73;100.00;94567.53;4966812;28;20118;-70
2022/09/29 04:40:26;;;;;;;16.45;12.27;;;9.60;84.00;;;7.73;100.00;94564.91;4960704;28;20110;-71
2022/09/29 04:42:53;;;;;;;26.38;19.20;;;9.60;84.20;;;7.74;100.00;94566.50;4949576;28;20054;-70
2022/09/29 04:45:19;;;;;;;7.65;4.10;;;9.60;84.40;;;7.76;100.00;94563.69;4987133;28;20050;-64
2022/09/29 04:47:45;;;;;;;8.38;6.13;;;9.60;84.10;;;7.77;100.00;94568.69;4967026;28;20059;-65
2022/09/29 04:50:10;;;;;;;15.80;11.40;;;9.60;84.20;;;7.78;100.00;94564.28;4983871;28;20055;-65
2022/09/29 04:52:36;;;;;;;7.30;6.13;;;9.70;84.20;;;7.82;100.00;94563.63;5033621;28;20111;-67
2022/09/29 04:55:03;;;;;;;6.30;3.20;;;9.70;84.10;;;7.84;100.00;94572.06;4972453;28;20475;-66
2022/09/29 04:57:29;;;;;;;4.53;2.40;;;9.70;84.10;;;7.86;100.00;94569.25;4973673;28;20057;-65
2022/09/29 04:59:55;;;;;;;4.63;2.25;;;9.80;84.00;;;7.87;100.00;94566.41;4984962;28;20493;-71
2022/09/29 05:02:21;;;;;;;3.13;1.98;;;9.80;84.00;;;7.88;100.00;94554.94;4946679;28;20050;-64
2022/09/29 05:04:46;;;;;;;3.75;2.08;;;9.70;84.00;;;7.88;100.00;94541.84;4974813;28;20063;-69
2022/09/29 05:07:13;;;;;;;9.90;6.90;;;9.80;84.30;;;7.92;100.00;94543.06;4937062;28;20122;-69
2022/09/29 05:09:39;;;;;;;21.10;15.43;;;9.80;84.20;;;7.93;100.00;94539.44;4963591;28;20169;-65
2022/09/29 05:12:05;;;;;;;27.38;17.95;;;9.80;84.20;;;7.96;100.00;94539.00;4982195;28;20118;-64
2022/09/29 05:14:30;;;;;;;8.35;5.72;;;9.90;84.10;;;7.96;100.00;94544.25;5003429;28;20168;-68
2022/09/29 05:16:56;;;;;;;5.15;2.75;;;9.80;83.90;;;7.97;100.00;94540.59;4961587;28;20050;-69
2022/09/29 05:19:22;;;;;;;3.65;2.50;;;9.80;84.10;;;7.99;100.00;94538.56;4955706;28;20062;-63
2022/09/29 05:21:48;;;;;;;3.00;1.80;;;9.80;84.20;;;7.98;100.00;94546.66;4970547;28;20458;-67
2022/09/29 05:24:13;;;;;;;2.33;1.80;;;9.90;84.10;;;7.98;100.00;94546.66;4962493;28;20100;-66
2022/09/29 05:26:39;;;;;;;6.85;4.60;;;9.90;84.00;;;7.97;100.00;94535.38;4967506;28;20123;-66
2022/09/29 05:29:05;;;;;;;16.30;11.50;;;9.80;83.80;;;7.98;100.00;94536.97;4968437;28;20047;-66
2022/09/29 05:31:31;;;;;;;24.13;19.30;;;9.90;83.80;;;7.98;100.00;94541.41;4972634;28;20142;-64
2022/09/29 05:33:56;;;;;;;34.40;25.10;;;9.90;84.00;;;7.98;100.00;94533.56;4956104;28;20039;-65
2022/09/29 05:36:22;;;;;;;14.07;10.60;;;9.90;84.00;;;7.96;100.00;94523.28;5009275;28;20047;-68
2022/09/29 05:38:48;;;;;;;7.03;4.28;;;9.90;83.90;;;7.99;100.00;94528.09;4960643;28;20125;-65
2022/09/29 05:41:21;;;;;;;8.30;3.25;;;9.90;83.90;;;7.99;100.00;94527.31;4960627;28;20088;-65
2022/09/29 05:43:47;;;;;;;11.27;3.30;;;9.90;83.80;;;8.01;100.00;94527.09;4966608;28;20363;-65
2022/09/29 05:46:14;;;;;;;6.32;3.33;;;9.90;83.80;;;8.04;100.00;94531.91;5007613;28;20113;-67
2022/09/29 05:48:39;;;;;;;3.83;2.35;;;9.90;83.60;;;8.04;100.00;94531.91;4966581;28;20466;-67
2022/09/29 05:51:11;;;;;;;3.03;2.03;;;9.90;83.50;;;8.03;100.00;94527.69;4965447;28;20039;-67
2022/09/29 05:53:40;;;;;;;3.47;2.10;;;9.80;83.40;;;8.03;100.00;94532.91;4953439;28;20027;-61
2022/09/29 05:56:11;;;;;;;3.65;2.45;;;9.90;83.40;;;8.05;100.00;94536.13;4968015;28;20134;-68
2022/09/29 05:58:37;;;;;;;5.25;2.53;;;9.90;83.40;;;8.06;100.00;94535.09;4970382;28;20028;-66
2022/09/29 06:01:07;;;;;;;4.00;2.70;;;10.00;83.40;;;8.07;100.00;94541.94;4964742;28;20035;-66
2022/09/29 06:03:34;;;;;;;4.32;2.80;;;10.10;83.30;;;8.10;100.00;94538.91;4946259;28;20050;-68
2022/09/29 06:06:17;;;;;;;4.60;2.58;;;10.00;83.10;;;8.11;100.00;94530.84;4966514;28;20092;-69
2022/09/29 06:08:43;;;;;;;4.88;2.70;;;10.10;83.30;;;8.14;100.00;94540.09;4970608;28;20066;-66
2022/09/29 06:11:21;;;;;;;8.50;2.75;;;10.10;83.20;;;8.14;100.00;94534.84;5008858;28;20180;-63
2022/09/29 06:13:48;;;;;;;4.57;3.05;;;10.10;83.00;;;8.17;100.00;94529.22;4984737;28;20366;-64
2022/09/29 06:16:15;;;;;;;6.68;3.10;;;10.10;83.00;;;8.20;100.00;94536.63;4947120;28;20616;-66
2022/09/29 06:18:40;;;;;;;9.23;3.50;;;10.20;83.30;;;8.24;100.00;94535.19;4991226;28;20538;-67
2022/09/29 06:21:12;;;;;;;5.50;3.17;;;10.20;83.30;;;8.27;100.00;94540.00;4968795;28;20114;-69
2022/09/29 06:23:38;;;;;;;3.45;2.50;;;10.20;83.20;;;8.30;100.00;94534.34;5004842;28;20498;-64
2022/09/29 06:26:06;;;;;;;3.47;2.55;;;10.30;83.30;;;8.36;100.00;94535.31;4963932;28;20049;-66
2022/09/29 06:28:32;;;;;;;5.32;2.63;;;10.40;83.10;;;8.41;100.00;94535.50;4948883;28;20565;-67
2022/09/29 06:30:59;;;;;;;3.78;2.70;;;10.40;83.00;;;8.46;100.00;94533.84;4963304;28;20049;-63
2022/09/29 06:33:26;;;;;;;4.32;3.00;;;10.60;82.80;;;8.51;100.00;94531.38;4962258;28;20057;-64
2022/09/29 06:38:36;;;;;;;5.55;3.30;;;10.60;82.50;;;8.65;100.00;94531.28;4952068;28;20045;-69
2022/09/29 06:41:02;;;;;;;4.07;3.20;;;10.70;82.40;;;8.73;100.00;94528.38;4970142;28;20122;-68
2022/09/29 06:43:28;;;;;;;6.68;3.30;;;10.80;82.30;;;8.79;100.00;94532.75;4931843;28;20073;-64
2022/09/29 06:45:53;;;;;;;5.85;3.17;;;10.90;82.00;;;8.82;100.00;94533.09;4961470;28;20078;-65
2022/09/29 06:48:19;;;;;;;5.55;2.67;;;11.00;81.80;;;8.91;100.00;94538.91;4977055;28;20117;-65
2022/09/29 06:50:45;;;;;;;4.75;2.72;;;11.10;81.80;;;8.98;100.00;94552.72;4948818;28;20058;-62
2022/09/29 06:53:11;;;;;;;4.35;2.80;;;11.10;81.70;;;9.03;100.00;94539.75;4971938;28;20034;-69
2022/09/29 06:55:36;;;;;;;4.30;2.85;;;11.10;81.60;;;9.11;100.00;94539.50;4965506;28;20066;-69
2022/09/29 06:58:02;;;;;;;4.85;3.03;;;11.20;81.40;;;9.16;100.00;94544.88;4946324;28;20055;-66
2022/09/29 07:00:28;;;;;;;4.72;2.92;;;11.30;81.00;;;9.21;100.00;94542.41;4948436;28;20077;-68
2022/09/29 07:02:53;;;;;;;4.55;3.25;;;11.30;81.20;;;9.27;100.00;94545.97;4976753;28;20042;-65
2022/09/29 07:05:19;;;;;;;4.15;2.90;;;11.40;80.90;;;9.33;100.00;94554.81;4951646;28;20070;-66
2022/09/29 07:07:47;;;;;;;5.22;2.75;;;11.40;80.20;;;9.40;100.00;94553.72;4963091;28;20045;-66
2022/09/29 07:10:14;;;;;;;7.45;3.25;;;11.50;80.20;;;9.49;100.00;94548.97;4970317;28;20043;-65
2022/09/29 07:12:40;;;;;;;4.45;3.38;;;11.60;79.80;;;9.58;100.00;94557.34;4974673;28;20039;-65
2022/09/29 07:15:06;;;;;;;4.68;3.67;;;11.70;78.90;;;9.62;100.00;94556.69;4981325;28;20070;-65
2022/09/29 07:17:32;;;;;;;3.38;2.97;;;11.70;78.30;;;9.67;100.00;94556.81;4966068;28;20037;-67
2022/09/29 07:19:58;;;;;;;5.03;3.08;;;11.80;78.00;;;9.65;100.00;94558.88;4963971;28;20122;-66
2022/09/29 07:22:23;;;;;;;4.75;3.00;;;11.70;78.20;;;9.71;100.00;94557.19;4971590;28;20062;-67
2022/09/29 07:24:52;;;;;;;6.35;2.75;;;11.80;78.80;;;9.76;100.00;94560.75;4961828;28;20070;-65
2022/09/29 07:27:23;;;;;;;2.95;2.17;;;11.90;78.90;;;9.86;100.00;94564.66;4966407;28;20482;-67
2022/09/29 07:29:52;;;;;;;4.60;2.20;;;12.00;78.50;;;9.95;100.00;94568.59;4970462;28;20092;-66
2022/09/29 07:32:18;;;;;;;3.13;2.25;;;12.10;78.30;;;10.04;100.00;94572.53;4970731;28;20027;-67
2022/09/29 07:34:44;;;;;;;2.25;1.77;;;12.30;77.50;;;10.13;100.00;94571.16;4945515;28;20031;-65
2022/09/29 07:37:10;;;;;;;3.50;2.10;;;12.40;76.50;;;10.24;100.00;94580.16;5063255;28;20052;-66
2022/09/29 07:39:36;;;;;;;2.70;1.90;;;12.60;76.00;;;10.32;100.00;94570.13;4970438;28;20035;-62
2022/09/29 07:42:02;;;;;;;5.80;1.77;;;12.70;75.00;;;10.38;100.00;94574.47;4947912;28;20100;-63
2022/09/29 07:44:30;;;;;;;2.17;1.52;;;12.70;75.30;;;10.42;100.00;94567.78;4962648;28;20397;-63
2022/09/29 07:46:56;;;;;;;2.90;1.40;;;12.70;75.20;;;10.51;100.00;94573.50;4962932;28;20038;-63
2022/09/29 07:49:22;;;;;;;3.22;2.25;;;12.70;75.50;;;10.60;100.00;94576.59;4967791;28;20035;-62
2022/09/29 07:51:48;;;;;;;4.32;2.13;;;12.90;74.80;;;10.70;100.00;94582.09;4983147;28;20507;-66
2022/09/29 07:54:14;;;;;;;2.80;1.70;;;13.10;74.40;;;10.80;100.00;94571.81;4972257;28;20062;-70
2022/09/29 07:56:39;;;;;;;2.92;1.77;;;13.40;73.30;;;10.92;100.00;94580.53;4973867;28;20133;-69
2022/09/29 07:59:05;;;;;;;6.40;2.03;;;13.50;72.70;;;11.02;100.00;94579.94;4981247;28;20086;-67
2022/09/29 08:01:31;;;;;;;4.07;1.63;;;13.60;72.30;;;11.08;100.00;94588.75;4980455;28;20139;-62
2022/09/29 08:03:57;;;;;;;2.55;1.65;;;13.60;71.00;;;11.15;100.00;94578.94;4972556;28;20043;-63
2022/09/29 08:06:24;;;;;;;3.83;1.80;;;13.60;70.80;;;11.26;100.00;94586.00;4969871;28;20110;-62
2022/09/29 08:08:49;;;;;;;2.05;1.45;;;13.90;71.40;;;11.41;100.00;94594.25;4950227;28;20079;-68
2022/09/29 08:11:17;;;;;;;4.38;1.70;;;14.00;72.10;;;11.48;100.00;94594.13;4965823;28;20035;-66
2022/09/29 08:13:43;;;;;;;5.57;2.03;;;13.90;70.60;;;11.51;100.00;94594.44;4989817;28;20029;-68
2022/09/29 08:16:11;;;;;;;4.78;1.52;;;13.80;70.40;;;11.55;100.00;94590.34;5000589;28;20474;-61
2022/09/29 08:18:37;;;;;;;4.45;0.90;;;13.80;70.90;;;11.57;100.00;94585.66;4968024;28;20115;-66
2022/09/29 08:21:04;;;;;;;3.63;1.48;;;13.80;69.70;;;11.54;100.00;94588.75;4950749;28;20054;-66
2022/09/29 08:23:33;;;;;;;1.80;1.30;;;13.70;70.30;;;11.57;100.00;94592.75;4952684;28;20031;-67
2022/09/29 08:26:14;;;;;;;2.55;1.20;;;13.70;70.90;;;11.60;100.00;94593.09;4969324;28;20057;-67
2022/09/29 08:28:40;;;;;;;3.20;1.52;;;13.70;71.60;;;11.62;100.00;94592.84;4940046;28;20390;-66
2022/09/29 08:31:20;;;;;;;1.40;1.17;;;13.70;71.30;;;11.62;100.00;94595.47;4970009;28;20038;-68
2022/09/29 08:33:48;;;;;;;1.20;1.00;;;13.60;70.10;;;11.60;100.00;94608.88;4958708;28;20027;-65
2022/09/29 08:36:15;;;;;;;1.08;0.80;;;13.70;70.10;;;11.60;100.00;94603.63;4965503;28;20039;-68
2022/09/29 08:38:51;;;;;;;3.30;1.27;;;13.80;69.60;;;11.68;100.00;94601.66;4947568;28;20039;-68
2022/09/29 08:41:51;;;;;;;8.05;5.85;;;13.80;69.20;;;11.71;100.00;94598.53;4966640;28;20031;-69
2022/09/29 08:44:49;;;;;;;14.25;9.50;;;13.90;68.80;;;11.74;100.00;94588.34;4968585;28;20043;-68
2022/09/29 08:47:18;;;;;;;11.70;10.18;;;14.10;69.10;;;11.80;100.00;94591.94;4977808;28;20031;-67
2022/09/29 08:49:51;;;;;;;9.45;7.78;;;14.20;69.00;;;11.89;100.00;94595.78;4985250;28;20021;-68
2022/09/29 08:52:26;;;;;;;4.22;3.75;;;14.30;69.20;;;11.99;100.00;94585.44;5005021;28;20517;-67
2022/09/29 08:55:16;;;;;;;2.42;1.65;;;14.50;68.40;;;12.14;100.00;94583.09;5005232;28;20511;-69
2022/09/29 08:57:43;;;;;;;3.25;2.50;;;14.70;68.60;;;12.24;100.00;94593.84;4972740;28;20403;-69
2022/09/29 09:00:15;;;;;;;4.28;3.20;;;14.80;67.20;;;12.35;100.00;94594.00;4947999;28;20034;-69
2022/09/29 09:03:05;;;;;;;10.80;8.07;;;15.10;66.90;;;12.52;100.00;94593.00;4973439;28;20032;-69
2022/09/29 09:05:57;;;;;;;10.47;5.73;;;15.30;65.40;;;12.71;100.00;94588.31;4981859;28;20491;-67
2022/09/29 09:08:43;;;;;;;5.10;3.35;;;15.60;65.50;;;12.86;100.00;94596.47;4967543;28;20043;-65
2022/09/29 09:11:22;;;;;;;3.10;2.50;;;15.60;64.80;;;13.00;100.00;94588.25;4964466;28;20084;-65
2022/09/29 09:13:57;;;;;;;2.42;1.92;;;15.60;64.00;;;13.04;100.00;94581.44;5011030;28;20067;-65
2022/09/29 09:16:50;;;;;;;2.95;2.35;;;15.50;64.40;;;13.11;100.00;94588.16;4979114;28;20053;-67
2022/09/29 09:20:04;;;;;;;4.90;3.50;;;15.60;64.50;;;13.14;100.00;94589.53;4970639;28;20050;-67
2022/09/29 09:23:18;;;;;;;3.20;2.42;;;15.60;64.70;;;13.16;100.00;94588.25;4974153;28;20129;-66
2022/09/29 09:26:00;;;;;;;2.95;1.65;;;15.50;66.00;;;13.06;100.00;94592.56;4997938;28;20020;-64
2022/09/29 09:28:40;;;;;;;3.72;2.20;;;15.20;64.20;;;12.99;100.00;94587.44;5015356;28;20391;-65
2022/09/29 09:31:17;;;;;;;2.83;1.70;;;15.10;65.80;;;13.00;100.00;94590.88;4952040;28;20057;-66
2022/09/29 09:34:13;;;;;;;3.30;2.13;;;15.00;65.60;;;12.95;100.00;94604.00;4964926;28;20031;-65
2022/09/29 09:36:46;;;;;;;2.40;1.90;;;15.00;66.20;;;12.84;100.00;94603.81;5006220;28;20064;-65
2022/09/29 09:39:30;;;;;;;2.53;1.80;;;14.70;65.10;;;12.75;100.00;94600.00;4971229;28;20627;-65
2022/09/29 09:41:57;;;;;;;2.03;1.73;;;14.60;65.90;;;12.70;100.00;94607.84;4958735;28;20047;-62
2022/09/29 09:44:30;;;;;;;3.70;2.72;;;14.60;66.80;;;12.66;100.00;94605.88;4972377;28;20475;-64
2022/09/29 09:47:24;;;;;;;3.40;2.40;;;14.60;67.30;;;12.58;99.40;94609.72;4950766;28;20131;-66
2022/09/29 09:49:57;;;;;;;2.33;1.67;;;14.40;66.50;;;12.49;100.00;94605.88;4963753;28;20045;-65
2022/09/29 09:52:52;;;;;;;5.75;3.80;;;14.40;67.20;;;12.44;100.00;94613.69;5003187;28;20042;-67
2022/09/29 09:55:26;;;;;;;4.22;2.90;;;14.30;67.10;;;12.40;100.00;94609.91;4992152;28;20130;-63
2022/09/29 09:58:13;;;;;;;2.60;2.40;;;14.30;65.90;;;12.36;100.00;94614.06;4954229;28;20036;-66
2022/09/29 10:00:46;;;;;;;3.67;2.10;;;14.20;66.60;;;12.33;100.00;94609.28;4983407;28;20052;-63
2022/09/29 10:03:13;;;;;;;1.92;1.50;;;14.30;66.40;;;12.32;100.00;94613.75;4946891;28;20047;-69
2022/09/29 10:05:44;;;;;;;1.80;1.15;;;14.30;67.20;;;12.29;100.00;94613.41;4963486;28;20490;-67
2022/09/29 10:08:29;;;;;;;1.25;1.10;;;14.20;67.70;;;12.26;100.00;94618.13;4913697;28;20031;-61
2022/09/29 10:10:55;;;;;;;2.75;1.23;;;14.20;66.90;;;12.23;100.00;94618.59;4949191;28;20027;-67
2022/09/29 10:13:23;;;;;;;1.25;0.80;;;14.10;66.90;;;12.18;100.00;94621.13;4936385;28;20046;-68
2022/09/29 10:16:19;;;;;;;1.38;0.80;;;14.20;66.70;;;12.21;100.00;94618.00;4975520;28;20088;-69
2022/09/29 10:18:47;;;;;;;2.00;0.90;;;14.20;67.10;;;12.20;100.00;94626.16;4954264;28;20080;-66
2022/09/29 10:21:25;;;;;;;2.15;0.90;;;14.20;66.70;;;12.22;99.55;94622.28;4959714;28;20036;-66
2022/09/29 10:23:55;;;;;;;2.58;0.90;;;14.30;65.80;;;12.22;100.00;94627.53;4962452;28;20030;-67
2022/09/29 10:26:31;;;;;;;2.57;0.90;;;14.30;66.00;;;12.22;99.65;94629.34;4976530;28;20096;-66
2022/09/29 10:29:00;;;;;;;1.52;0.98;;;14.20;65.50;;;12.20;100.00;94634.88;4956965;28;20046;-66
2022/09/29 10:31:31;;;;;;;0.90;0.80;;;14.30;65.70;;;12.24;100.00;94630.75;4948335;28;20522;-74
2022/09/29 10:34:14;;;;;;;1.77;0.98;;;14.30;67.30;;;12.27;100.00;94625.00;4930319;28;20041;-67
2022/09/29 10:37:34;;;;;;;2.20;0.98;;;14.30;66.70;;;12.34;100.00;94624.06;4963630;28;20094;-69
2022/09/29 10:40:12;;;;;;;1.00;0.80;;;14.40;67.00;;;12.35;100.00;94631.72;5006452;28;20136;-70